Time;durP1;ratioP1;P1;durP2;ratioP2;P2;SDS_P1;SDS_P2;PMS_P1;PMS_P2;Temp;Humidity;BMP_temperature;BMP_pressure;BME280_temperature;BME280_humidity;BME280_pressure;Samples;Min_cycle;Max_cycle;Signal;HPM_P1;HPM_P2
2023/06/28 00:01:26;;;;;;;5.00;4.60;;;18.60;99.90;;;;;;5055890;28;20229;-76
2023/06/28 00:03:53;;;;;;;5.73;5.20;;;18.60;99.90;;;;;;5064111;28;20199;-76
2023/06/28 00:06:20;;;;;;;4.90;4.40;;;18.70;99.90;;;;;;5064172;28;20262;-76
2023/06/28 00:08:47;;;;;;;5.27;4.60;;;18.70;99.90;;;;;;5058595;28;20252;-76
2023/06/28 00:11:13;;;;;;;4.53;4.17;;;18.60;99.90;;;;;;5047115;28;20237;-76
2023/06/28 00:13:42;;;;;;;4.77;4.23;;;18.70;99.90;;;;;;5060092;28;20954;-76
2023/06/28 00:16:08;;;;;;;4.50;4.10;;;18.60;99.90;;;;;;5062874;28;20294;-76
2023/06/28 00:18:35;;;;;;;5.47;4.30;;;18.60;99.90;;;;;;5060397;28;20200;-76
2023/06/28 00:21:02;;;;;;;5.23;4.50;;;18.60;99.90;;;;;;5056898;28;20226;-76
2023/06/28 00:23:29;;;;;;;4.73;4.00;;;18.60;99.90;;;;;;5057196;28;20206;-76
2023/06/28 00:25:56;;;;;;;5.30;4.83;;;18.60;99.90;;;;;;5060549;28;20224;-76
2023/06/28 00:28:22;;;;;;;3.73;2.93;;;18.60;99.90;;;;;;5050833;28;20703;-75
2023/06/28 00:30:50;;;;;;;4.07;3.30;;;18.60;99.90;;;;;;5053553;28;20197;-76
2023/06/28 00:33:20;;;;;;;3.17;2.83;;;18.50;99.90;;;;;;5062175;28;20212;-76
2023/06/28 00:35:47;;;;;;;3.33;2.70;;;18.50;99.90;;;;;;5061193;28;20278;-76
2023/06/28 00:38:14;;;;;;;5.13;3.00;;;18.50;99.90;;;;;;5052243;28;20191;-76
2023/06/28 00:40:42;;;;;;;4.63;3.30;;;18.50;99.90;;;;;;5064414;28;20219;-76
2023/06/28 00:43:09;;;;;;;3.47;2.87;;;18.50;99.90;;;;;;5062329;28;20216;-76
2023/06/28 00:45:35;;;;;;;3.90;3.50;;;18.50;99.90;;;;;;5061727;28;20246;-76
2023/06/28 00:48:04;;;;;;;4.50;3.10;;;18.50;99.90;;;;;;5062388;28;20669;-76
2023/06/28 00:50:32;;;;;;;3.43;3.07;;;18.50;99.90;;;;;;5059066;28;20214;-76
2023/06/28 00:52:59;;;;;;;3.63;3.20;;;18.50;99.90;;;;;;5064436;28;20230;-76
2023/06/28 00:55:26;;;;;;;3.13;2.83;;;18.40;99.90;;;;;;5056252;28;20206;-75
2023/06/28 00:57:54;;;;;;;2.93;2.73;;;18.40;99.90;;;;;;5054811;28;20207;-75
2023/06/28 01:00:21;;;;;;;4.20;3.20;;;18.40;99.90;;;;;;5061365;28;20255;-76
2023/06/28 01:02:49;;;;;;;5.00;3.20;;;18.40;99.90;;;;;;5060681;28;20210;-76
2023/06/28 01:05:19;;;;;;;3.00;2.80;;;18.50;99.90;;;;;;5068577;28;20219;-77
2023/06/28 01:07:51;;;;;;;3.77;2.70;;;18.40;99.90;;;;;;5060679;28;20208;-76
2023/06/28 01:10:18;;;;;;;4.33;3.23;;;18.40;99.90;;;;;;5062427;28;20298;-76
2023/06/28 01:12:46;;;;;;;6.53;3.00;;;18.30;99.90;;;;;;5066516;28;20216;-75
2023/06/28 01:15:14;;;;;;;3.47;2.93;;;18.30;99.90;;;;;;5062797;28;20269;-76
2023/06/28 01:17:42;;;;;;;3.80;3.40;;;18.30;99.90;;;;;;5065289;28;20726;-76
2023/06/28 01:20:09;;;;;;;6.43;3.70;;;18.20;99.90;;;;;;5060566;28;20612;-76
2023/06/28 01:22:40;;;;;;;6.20;3.33;;;18.20;99.90;;;;;;5051252;28;20311;-76
2023/06/28 01:25:10;;;;;;;4.60;3.50;;;18.20;99.90;;;;;;5047333;28;20678;-76
2023/06/28 01:27:40;;;;;;;5.63;3.50;;;18.10;99.90;;;;;;5046463;28;20194;-75
2023/06/28 01:30:11;;;;;;;4.13;3.73;;;18.10;99.90;;;;;;5048608;28;20196;-76
2023/06/28 01:32:37;;;;;;;4.57;3.27;;;18.10;99.90;;;;;;5047594;28;20230;-76
2023/06/28 01:35:05;;;;;;;4.87;3.53;;;18.10;99.90;;;;;;5066808;28;20252;-75
2023/06/28 01:37:33;;;;;;;3.30;3.00;;;18.10;99.90;;;;;;5055148;28;20634;-75
2023/06/28 01:40:00;;;;;;;5.67;5.17;;;18.00;99.90;;;;;;5066904;28;20611;-76
2023/06/28 01:42:28;;;;;;;6.13;5.30;;;18.00;99.90;;;;;;5058357;28;20224;-75
2023/06/28 01:44:55;;;;;;;4.87;3.30;;;18.10;99.90;;;;;;5064828;28;20742;-76
2023/06/28 01:47:22;;;;;;;3.67;3.30;;;18.10;99.90;;;;;;5056359;28;20197;-76
2023/06/28 01:49:49;;;;;;;4.73;3.47;;;18.10;99.90;;;;;;5062846;28;20203;-76
2023/06/28 01:52:16;;;;;;;4.90;3.53;;;18.00;99.90;;;;;;5063668;28;20219;-76
2023/06/28 01:54:43;;;;;;;5.90;5.40;;;18.00;99.90;;;;;;5071562;28;20769;-76
2023/06/28 01:57:12;;;;;;;5.03;4.63;;;18.00;99.90;;;;;;5064000;28;20232;-76
2023/06/28 01:59:40;;;;;;;6.13;5.03;;;18.10;99.90;;;;;;5058410;28;20254;-76
2023/06/28 02:02:07;;;;;;;4.90;4.50;;;18.10;99.90;;;;;;5052378;28;20274;-76
2023/06/28 02:04:34;;;;;;;5.33;4.93;;;18.00;99.90;;;;;;5057150;28;20240;-76
2023/06/28 02:07:00;;;;;;;5.70;4.73;;;18.00;99.90;;;;;;5061366;28;20208;-76
2023/06/28 02:09:27;;;;;;;5.07;4.57;;;18.00;99.90;;;;;;5061285;28;20565;-76
2023/06/28 02:11:54;;;;;;;6.17;5.27;;;18.00;99.90;;;;;;5066971;28;20299;-76
2023/06/28 02:14:21;;;;;;;5.97;5.57;;;17.90;99.90;;;;;;5066057;28;20685;-76
2023/06/28 02:16:49;;;;;;;6.43;6.00;;;17.90;99.90;;;;;;5065636;28;20223;-76
2023/06/28 02:19:16;;;;;;;6.40;5.90;;;17.80;99.90;;;;;;5064765;28;20190;-76
2023/06/28 02:21:43;;;;;;;8.57;5.60;;;17.80;99.90;;;;;;5052119;28;20221;-76
2023/06/28 02:24:10;;;;;;;6.43;5.60;;;17.60;99.90;;;;;;5063336;28;20205;-76
2023/06/28 02:26:37;;;;;;;8.10;7.23;;;17.60;99.90;;;;;;5062730;28;20223;-75
2023/06/28 02:29:04;;;;;;;8.80;5.80;;;17.50;99.90;;;;;;5058517;28;20632;-76
2023/06/28 02:31:30;;;;;;;7.10;6.40;;;17.40;99.90;;;;;;5059347;28;20265;-76
2023/06/28 02:33:59;;;;;;;6.17;5.67;;;17.30;99.90;;;;;;5059080;28;20449;-76
2023/06/28 02:36:25;;;;;;;5.17;4.47;;;17.30;99.90;;;;;;5052865;28;20218;-76
2023/06/28 02:38:52;;;;;;;6.00;5.40;;;17.20;99.90;;;;;;5061196;28;20224;-76
2023/06/28 02:41:19;;;;;;;5.90;4.20;;;17.20;99.90;;;;;;5067811;28;20203;-79
2023/06/28 02:43:46;;;;;;;4.50;4.10;;;17.20;99.90;;;;;;5067052;28;20240;-76
2023/06/28 02:46:13;;;;;;;9.90;5.63;;;17.10;99.90;;;;;;5062793;28;20730;-76
2023/06/28 02:48:40;;;;;;;6.07;5.57;;;17.10;99.90;;;;;;5061760;28;20195;-76
2023/06/28 02:51:08;;;;;;;5.13;4.23;;;17.10;99.90;;;;;;5061086;28;20202;-76
2023/06/28 02:53:35;;;;;;;7.33;5.50;;;17.00;99.90;;;;;;5062903;28;20588;-76
2023/06/28 02:56:02;;;;;;;4.97;4.13;;;16.90;99.90;;;;;;5066901;28;20198;-76
2023/06/28 02:58:55;;;;;;;4.83;4.10;;;16.90;99.90;;;;;;5040306;28;20206;-76
2023/06/28 03:01:21;;;;;;;5.70;5.20;;;16.90;99.90;;;;;;5041153;28;20254;-76
2023/06/28 03:03:48;;;;;;;6.27;5.73;;;17.00;99.90;;;;;;5047175;28;20192;-76
2023/06/28 03:06:17;;;;;;;5.53;3.60;;;17.00;99.90;;;;;;5043802;28;20195;-76
2023/06/28 03:08:44;;;;;;;5.07;4.17;;;17.00;99.90;;;;;;5051542;28;20713;-76
2023/06/28 03:11:10;;;;;;;4.17;3.77;;;17.00;99.90;;;;;;5044585;28;20202;-76
2023/06/28 03:13:37;;;;;;;4.43;4.03;;;17.00;99.90;;;;;;5037157;28;20211;-76
2023/06/28 03:16:05;;;;;;;4.57;3.53;;;17.00;99.90;;;;;;5044905;28;20286;-76
2023/06/28 03:18:32;;;;;;;5.43;3.70;;;16.90;99.90;;;;;;5042097;28;20203;-76
2023/06/28 03:20:58;;;;;;;4.50;3.10;;;16.90;99.90;;;;;;5046825;28;20219;-76
2023/06/28 03:23:26;;;;;;;3.83;2.80;;;16.80;99.90;;;;;;5043703;28;20211;-76
2023/06/28 03:25:58;;;;;;;8.00;3.87;;;16.80;99.90;;;;;;5067858;28;20213;-77
2023/06/28 03:28:25;;;;;;;5.43;3.40;;;16.80;99.90;;;;;;5031498;28;20227;-76
2023/06/28 03:30:52;;;;;;;6.90;5.03;;;16.80;99.90;;;;;;5042455;28;20294;-76
2023/06/28 03:33:19;;;;;;;5.90;5.30;;;16.80;99.90;;;;;;5053841;28;20815;-76
2023/06/28 03:35:46;;;;;;;6.77;5.00;;;16.80;99.90;;;;;;5043795;28;20285;-77
2023/06/28 03:38:14;;;;;;;6.80;5.43;;;16.80;99.90;;;;;;5046328;28;20276;-76
2023/06/28 03:40:44;;;;;;;4.90;4.50;;;16.80;99.90;;;;;;5053795;28;20561;-77
2023/06/28 03:43:11;;;;;;;5.60;5.10;;;16.80;99.90;;;;;;5050733;28;20215;-76
2023/06/28 03:45:38;;;;;;;5.70;5.17;;;16.80;99.90;;;;;;5055819;28;20195;-72
2023/06/28 03:48:05;;;;;;;5.70;5.23;;;16.70;99.90;;;;;;5051620;28;20637;-73
2023/06/28 03:50:32;;;;;;;7.53;5.30;;;16.80;99.90;;;;;;5054058;28;20202;-73
2023/06/28 03:52:59;;;;;;;6.70;5.87;;;16.80;99.90;;;;;;5044391;28;20226;-73
2023/06/28 03:55:26;;;;;;;6.30;5.63;;;16.80;99.90;;;;;;5055376;28;20627;-73
2023/06/28 03:57:54;;;;;;;4.77;4.37;;;16.80;99.90;;;;;;5053900;28;20593;-73
2023/06/28 04:00:21;;;;;;;5.60;5.20;;;16.90;99.90;;;;;;5050196;28;20211;-74
2023/06/28 04:02:48;;;;;;;5.60;5.10;;;16.90;99.90;;;;;;5044835;28;20270;-74
2023/06/28 04:05:15;;;;;;;6.13;4.90;;;17.00;99.90;;;;;;5050635;28;20340;-74
2023/06/28 04:07:41;;;;;;;6.77;5.43;;;17.00;99.90;;;;;;5051087;28;20187;-73
2023/06/28 04:10:10;;;;;;;5.53;5.03;;;17.00;99.90;;;;;;5056831;28;20720;-73
2023/06/28 04:12:37;;;;;;;5.50;5.10;;;17.00;99.90;;;;;;5050997;28;20310;-73
2023/06/28 04:15:07;;;;;;;7.10;5.30;;;17.00;99.90;;;;;;5058572;28;20788;-73
2023/06/28 04:17:34;;;;;;;7.53;5.83;;;16.90;99.90;;;;;;5049361;28;20226;-73
2023/06/28 04:20:01;;;;;;;6.40;5.10;;;16.90;99.90;;;;;;5052717;28;20198;-73
2023/06/28 04:22:27;;;;;;;5.53;5.13;;;16.90;99.90;;;;;;5048098;28;20203;-73
2023/06/28 04:24:54;;;;;;;5.47;5.07;;;16.90;99.90;;;;;;5056130;28;20548;-73
2023/06/28 04:27:21;;;;;;;5.87;5.30;;;16.90;99.90;;;;;;5046083;28;20270;-73
2023/06/28 04:29:48;;;;;;;7.73;5.77;;;16.90;99.90;;;;;;5056548;28;20600;-73
2023/06/28 04:32:23;;;;;;;5.93;5.43;;;16.90;99.90;;;;;;5054152;28;20252;-73
2023/06/28 04:34:52;;;;;;;5.30;4.80;;;16.90;99.90;;;;;;5048742;28;20218;-73
2023/06/28 04:37:19;;;;;;;5.17;4.73;;;16.90;99.90;;;;;;5058072;28;20203;-73
2023/06/28 04:39:46;;;;;;;5.20;4.70;;;16.90;99.90;;;;;;5067967;28;20195;-73
2023/06/28 04:42:14;;;;;;;5.90;5.30;;;17.00;99.90;;;;;;5055778;28;20297;-73
2023/06/28 04:44:43;;;;;;;6.17;5.57;;;17.00;99.90;;;;;;5056926;28;20199;-73
2023/06/28 04:47:10;;;;;;;6.33;5.13;;;17.10;99.90;;;;;;5054334;28;20187;-73
2023/06/28 04:49:38;;;;;;;5.70;5.30;;;17.20;99.90;;;;;;5056747;28;20207;-73
2023/06/28 04:52:05;;;;;;;6.03;5.60;;;17.30;99.90;;;;;;5049873;28;20297;-73
2023/06/28 04:54:32;;;;;;;5.73;5.23;;;17.40;99.90;;;;;;5050547;28;20219;-73
2023/06/28 04:56:59;;;;;;;6.20;5.70;;;17.60;99.90;;;;;;5054840;28;20294;-73
2023/06/28 04:59:26;;;;;;;5.30;4.90;;;17.70;99.90;;;;;;5056162;28;20282;-73
2023/06/28 05:01:52;;;;;;;7.50;5.37;;;17.90;99.90;;;;;;5051609;28;20220;-73
2023/06/28 05:04:19;;;;;;;6.37;4.80;;;18.00;99.90;;;;;;5058674;28;20282;-73
2023/06/28 05:06:47;;;;;;;6.47;5.97;;;18.00;99.90;;;;;;5050962;28;20246;-73
2023/06/28 05:09:14;;;;;;;6.07;5.47;;;18.10;99.90;;;;;;5054178;28;20689;-73
2023/06/28 05:11:41;;;;;;;4.33;2.73;;;18.10;99.90;;;;;;5049394;28;20222;-73
2023/06/28 05:14:08;;;;;;;4.83;4.43;;;18.20;99.90;;;;;;5055524;28;20692;-73
2023/06/28 05:16:34;;;;;;;3.93;2.73;;;18.30;99.90;;;;;;5052157;28;20731;-73
2023/06/28 05:19:01;;;;;;;4.60;3.03;;;18.40;99.90;;;;;;5055213;28;20250;-73
2023/06/28 05:21:28;;;;;;;3.23;2.73;;;18.50;99.90;;;;;;5051626;28;20275;-73
2023/06/28 05:23:56;;;;;;;3.93;3.10;;;18.50;99.90;;;;;;5050387;28;20286;-73
2023/06/28 05:26:23;;;;;;;6.00;3.10;;;18.50;99.90;;;;;;5045948;28;20208;-73
2023/06/28 05:28:49;;;;;;;5.10;4.00;;;18.60;99.90;;;;;;5041700;28;20767;-73
2023/06/28 05:31:16;;;;;;;4.03;2.90;;;18.70;99.90;;;;;;5049967;28;20260;-73
2023/06/28 05:33:43;;;;;;;4.77;3.10;;;18.90;99.90;;;;;;5060424;28;20707;-73
2023/06/28 05:36:10;;;;;;;5.50;5.00;;;19.00;99.90;;;;;;5057867;28;20197;-73
2023/06/28 05:38:37;;;;;;;5.47;5.00;;;19.10;99.90;;;;;;5039649;28;20268;-73
2023/06/28 05:41:14;;;;;;;5.00;3.70;;;19.20;99.90;;;;;;5051762;28;20229;-73
2023/06/28 05:43:43;;;;;;;7.80;5.77;;;19.30;99.90;;;;;;5059425;28;20202;-74
2023/06/28 05:46:10;;;;;;;3.03;2.73;;;19.30;99.90;;;;;;5053859;28;20736;-79
2023/06/28 05:48:37;;;;;;;6.27;4.00;;;19.40;99.90;;;;;;5060334;28;20230;-79
2023/06/28 05:51:06;;;;;;;5.80;5.30;;;19.50;99.90;;;;;;5065111;28;20623;-79
2023/06/28 05:53:33;;;;;;;4.43;3.37;;;19.60;99.90;;;;;;5058625;28;20200;-79
2023/06/28 05:56:00;;;;;;;3.03;2.73;;;19.70;99.90;;;;;;5058476;28;20265;-77
2023/06/28 05:58:28;;;;;;;5.10;4.70;;;19.90;99.90;;;;;;5056734;28;20255;-77
2023/06/28 06:00:55;;;;;;;5.53;4.77;;;20.00;99.90;;;;;;5050899;28;20194;-77
2023/06/28 06:03:21;;;;;;;7.73;3.43;;;20.10;99.90;;;;;;5058279;28;20299;-78
2023/06/28 06:05:48;;;;;;;4.53;4.10;;;20.30;99.90;;;;;;5061756;28;20203;-77
2023/06/28 06:08:15;;;;;;;5.00;4.50;;;20.40;99.90;;;;;;5056475;28;20248;-77
2023/06/28 06:10:42;;;;;;;3.43;2.80;;;20.40;99.90;;;;;;5055957;28;20264;-78
2023/06/28 06:13:10;;;;;;;3.90;3.33;;;20.60;99.90;;;;;;5063470;28;20215;-78
2023/06/28 06:15:38;;;;;;;5.63;5.07;;;20.70;99.90;;;;;;5048130;28;20690;-77
2023/06/28 06:18:05;;;;;;;5.37;4.93;;;20.70;99.90;;;;;;5056330;28;20214;-78
2023/06/28 06:20:33;;;;;;;5.23;4.83;;;20.70;99.90;;;;;;5051214;28;20191;-79
2023/06/28 06:23:02;;;;;;;5.23;4.73;;;20.80;99.90;;;;;;5052100;28;20282;-77
2023/06/28 06:25:29;;;;;;;7.23;5.27;;;20.80;99.90;;;;;;5053552;28;20199;-78
2023/06/28 06:27:56;;;;;;;5.07;3.50;;;20.70;99.90;;;;;;5055135;28;20196;-78
2023/06/28 06:30:23;;;;;;;5.17;4.60;;;20.70;99.90;;;;;;5052205;28;21161;-78
2023/06/28 06:32:51;;;;;;;4.93;4.30;;;20.70;99.90;;;;;;5045828;28;20361;-80
2023/06/28 06:35:18;;;;;;;5.67;5.17;;;20.70;99.90;;;;;;5054745;28;20233;-79
2023/06/28 06:37:45;;;;;;;5.77;5.27;;;20.70;99.90;;;;;;5050735;28;20751;-77
2023/06/28 06:40:13;;;;;;;5.67;5.17;;;20.80;99.90;;;;;;5063886;28;20187;-78
2023/06/28 06:42:39;;;;;;;4.53;3.53;;;20.80;99.90;;;;;;5058835;28;20215;-80
2023/06/28 06:45:07;;;;;;;4.67;3.70;;;20.90;99.90;;;;;;5060560;28;20661;-80
2023/06/28 06:47:36;;;;;;;5.13;2.90;;;20.70;99.90;;;;;;5070380;28;20202;-79
2023/06/28 06:50:06;;;;;;;5.13;3.07;;;20.70;99.90;;;;;;5058772;28;20211;-79
2023/06/28 06:52:33;;;;;;;4.80;2.50;;;20.70;99.90;;;;;;5060650;28;20226;-79
2023/06/28 06:55:00;;;;;;;5.80;4.83;;;20.60;99.90;;;;;;5053042;28;20685;-81
2023/06/28 06:57:26;;;;;;;3.83;2.70;;;20.60;99.90;;;;;;5060429;28;20225;-79
2023/06/28 06:59:53;;;;;;;6.07;2.97;;;20.60;99.90;;;;;;5056218;28;20218;-80
2023/06/28 07:02:21;;;;;;;10.10;3.60;;;20.70;99.90;;;;;;5063338;28;20603;-80
2023/06/28 07:04:48;;;;;;;4.03;2.80;;;21.00;99.90;;;;;;5061501;28;20195;-79
2023/06/28 07:07:17;;;;;;;4.90;3.17;;;21.10;99.90;;;;;;5055233;28;20199;-80
2023/06/28 07:09:43;;;;;;;5.33;2.90;;;21.30;99.90;;;;;;5053388;28;20213;-79
2023/06/28 07:12:11;;;;;;;6.13;3.03;;;21.30;99.90;;;;;;5062459;28;20626;-79
2023/06/28 07:14:38;;;;;;;4.97;4.43;;;21.30;99.90;;;;;;5053922;28;20693;-78
2023/06/28 07:17:05;;;;;;;5.87;3.07;;;21.50;99.90;;;;;;5053502;28;20218;-79
2023/06/28 07:19:31;;;;;;;4.93;3.40;;;21.60;99.90;;;;;;5074520;28;20220;-78
2023/06/28 07:21:58;;;;;;;5.10;4.70;;;21.80;99.90;;;;;;5065911;28;20219;-79
2023/06/28 07:24:26;;;;;;;3.40;3.03;;;22.00;99.90;;;;;;5068334;28;20244;-79
2023/06/28 07:26:53;;;;;;;4.47;2.43;;;22.30;99.90;;;;;;5046458;28;20545;-77
2023/06/28 07:29:20;;;;;;;2.87;2.17;;;22.30;99.90;;;;;;5048445;28;20227;-77
2023/06/28 07:31:46;;;;;;;5.30;4.30;;;22.50;99.90;;;;;;5054613;28;20635;-78
2023/06/28 07:34:14;;;;;;;5.93;3.10;;;22.70;99.00;;;;;;5049981;28;20227;-77
2023/06/28 07:36:41;;;;;;;4.73;4.30;;;22.90;99.20;;;;;;5048852;28;20203;-77
2023/06/28 07:39:09;;;;;;;4.63;4.00;;;23.10;99.20;;;;;;5046279;28;20269;-77
2023/06/28 07:41:37;;;;;;;5.43;3.53;;;23.10;98.90;;;;;;5049434;28;20621;-77
2023/06/28 07:44:04;;;;;;;4.60;4.10;;;23.10;98.40;;;;;;5047307;28;20724;-77
2023/06/28 07:46:32;;;;;;;4.60;2.97;;;23.00;99.30;;;;;;5054092;28;20294;-78
2023/06/28 07:48:59;;;;;;;7.10;3.93;;;23.10;99.50;;;;;;5050966;28;20198;-77
2023/06/28 07:51:26;;;;;;;3.50;2.93;;;23.10;98.20;;;;;;5045051;28;20229;-77
2023/06/28 07:53:53;;;;;;;4.30;2.40;;;22.90;98.80;;;;;;5062884;28;20199;-78
2023/06/28 07:56:20;;;;;;;4.57;2.80;;;22.90;98.90;;;;;;5044032;28;20261;-77
2023/06/28 07:58:49;;;;;;;5.27;3.43;;;22.80;99.50;;;;;;5048978;28;20210;-78
2023/06/28 08:01:17;;;;;;;3.87;2.90;;;23.00;98.50;;;;;;5066218;28;20264;-77
2023/06/28 08:03:44;;;;;;;4.40;3.53;;;22.80;97.90;;;;;;5053856;28;20210;-74
2023/06/28 08:06:11;;;;;;;5.03;2.30;;;22.70;98.50;;;;;;5064315;28;20200;-74
2023/06/28 08:08:38;;;;;;;3.37;2.47;;;22.50;97.90;;;;;;5059485;28;20236;-74
2023/06/28 08:11:05;;;;;;;4.83;2.30;;;22.20;98.90;;;;;;5061231;28;20268;-74
2023/06/28 08:13:32;;;;;;;2.87;2.17;;;22.30;99.10;;;;;;5069538;28;20224;-75
2023/06/28 08:16:00;;;;;;;4.90;2.57;;;22.40;98.10;;;;;;5063652;28;20211;-75
2023/06/28 08:18:27;;;;;;;5.53;4.43;;;22.40;99.30;;;;;;5059523;28;20250;-74
2023/06/28 08:20:54;;;;;;;5.10;3.67;;;22.20;99.10;;;;;;5066211;28;20198;-74
2023/06/28 08:23:21;;;;;;;4.67;2.60;;;22.00;99.00;;;;;;5055839;28;20300;-75
2023/06/28 08:25:48;;;;;;;5.33;2.80;;;22.20;99.00;;;;;;5066003;28;20586;-74
2023/06/28 08:28:14;;;;;;;3.67;3.23;;;21.90;99.20;;;;;;5041819;28;21199;-74
2023/06/28 08:30:41;;;;;;;3.80;2.30;;;21.70;98.70;;;;;;5043935;28;20263;-73
2023/06/28 08:33:10;;;;;;;4.70;2.40;;;21.70;99.80;;;;;;5054202;28;20214;-74
2023/06/28 08:35:36;;;;;;;4.80;4.40;;;21.70;99.40;;;;;;5044303;28;20199;-74
2023/06/28 08:38:04;;;;;;;3.73;2.50;;;21.50;98.80;;;;;;5045509;28;20215;-74
2023/06/28 08:40:31;;;;;;;3.97;2.50;;;21.30;99.10;;;;;;5059825;28;20688;-74
2023/06/28 08:43:00;;;;;;;4.03;2.20;;;21.50;99.10;;;;;;5052784;28;20313;-74
2023/06/28 08:45:27;;;;;;;4.43;2.80;;;21.60;99.00;;;;;;5046773;28;20290;-74
2023/06/28 08:47:55;;;;;;;5.43;2.90;;;21.80;99.30;;;;;;5059242;28;20186;-74
2023/06/28 08:50:24;;;;;;;4.33;3.50;;;21.80;99.20;;;;;;5065853;28;20569;-74
2023/06/28 08:52:52;;;;;;;2.90;2.30;;;22.00;99.90;;;;;;5057387;28;20226;-75
2023/06/28 08:55:20;;;;;;;4.83;2.57;;;22.40;99.90;;;;;;5060657;28;20190;-74
2023/06/28 08:57:47;;;;;;;4.90;4.40;;;22.60;99.00;;;;;;5060951;28;20224;-75
2023/06/28 09:00:15;;;;;;;5.10;4.70;;;22.90;98.70;;;;;;5069114;28;20232;-75
2023/06/28 09:02:43;;;;;;;5.07;2.50;;;22.90;97.30;;;;;;5056451;28;20216;-74
2023/06/28 09:05:11;;;;;;;5.90;4.73;;;23.10;98.10;;;;;;5068324;28;20582;-75
2023/06/28 09:07:41;;;;;;;4.50;4.10;;;23.00;97.30;;;;;;5058889;28;20561;-75
2023/06/28 09:10:09;;;;;;;5.13;3.97;;;23.00;97.70;;;;;;5063066;28;20195;-75
2023/06/28 09:12:36;;;;;;;5.90;4.57;;;23.20;98.20;;;;;;5047205;28;20215;-75
2023/06/28 09:15:03;;;;;;;6.30;4.80;;;23.50;98.10;;;;;;5050588;28;20285;-75
2023/06/28 09:17:30;;;;;;;3.40;2.50;;;24.00;97.90;;;;;;5060568;28;20563;-75
2023/06/28 09:20:01;;;;;;;3.73;2.77;;;24.50;96.60;;;;;;5067427;28;20215;-76
2023/06/28 09:22:29;;;;;;;4.37;4.03;;;24.60;97.00;;;;;;5057551;28;20298;-76
2023/06/28 09:25:03;;;;;;;4.90;4.50;;;25.00;95.70;;;;;;5066018;28;20248;-77
2023/06/28 09:27:31;;;;;;;5.03;4.47;;;25.30;95.70;;;;;;5047062;28;20196;-76
2023/06/28 09:30:31;;;;;;;4.60;4.20;;;25.30;94.50;;;;;;5041649;28;20281;-76
2023/06/28 09:32:57;;;;;;;4.87;4.47;;;25.30;94.50;;;;;;5051103;28;20268;-75
2023/06/28 09:35:24;;;;;;;5.70;2.40;;;25.30;95.00;;;;;;5051702;28;20206;-76
2023/06/28 09:37:57;;;;;;;4.53;4.13;;;25.30;94.80;;;;;;5043072;28;20251;-75
2023/06/28 09:40:26;;;;;;;6.47;4.80;;;25.00;96.50;;;;;;5065811;28;20202;-75
2023/06/28 09:42:52;;;;;;;5.60;2.50;;;24.80;95.50;;;;;;5059876;28;20222;-75
2023/06/28 09:45:26;;;;;;;3.63;2.50;;;24.70;96.20;;;;;;5066074;28;20200;-75
2023/06/28 09:47:57;;;;;;;3.37;2.93;;;24.90;96.40;;;;;;5055221;28;20633;-75
2023/06/28 09:50:36;;;;;;;2.77;2.20;;;25.30;95.80;;;;;;5066048;28;20264;-75
2023/06/28 09:53:03;;;;;;;5.53;4.80;;;25.70;94.70;;;;;;5052514;28;20317;-75
2023/06/28 09:55:31;;;;;;;3.47;2.10;;;26.20;94.60;;;;;;5058460;28;20205;-75
2023/06/28 09:57:59;;;;;;;4.47;3.20;;;26.80;94.20;;;;;;5063787;28;20281;-74
2023/06/28 10:00:28;;;;;;;4.17;3.73;;;27.00;93.00;;;;;;5062474;28;20218;-75
2023/06/28 10:02:58;;;;;;;5.40;5.00;;;26.90;93.00;;;;;;5045067;28;20378;-75
2023/06/28 10:05:25;;;;;;;5.10;4.60;;;27.10;92.90;;;;;;5052292;28;20207;-75
2023/06/28 10:07:52;;;;;;;5.00;4.60;;;27.30;92.10;;;;;;5051614;28;20260;-75
2023/06/28 10:10:19;;;;;;;6.47;5.10;;;27.60;92.30;;;;;;5052389;28;20287;-75
2023/06/28 10:12:49;;;;;;;5.50;5.03;;;28.00;91.90;;;;;;5062948;28;20215;-75
2023/06/28 10:15:24;;;;;;;5.97;5.33;;;28.10;91.50;;;;;;5063358;28;20256;-75
2023/06/28 10:17:51;;;;;;;5.30;4.80;;;28.30;90.60;;;;;;5056271;28;20224;-75
2023/06/28 10:20:19;;;;;;;5.70;5.20;;;28.20;90.70;;;;;;5058021;28;20751;-75
2023/06/28 10:22:46;;;;;;;6.47;5.23;;;28.30;91.20;;;;;;5063996;28;20603;-75
2023/06/28 10:25:14;;;;;;;6.20;5.50;;;27.60;90.90;;;;;;5061862;28;20638;-75
2023/06/28 10:27:41;;;;;;;6.83;5.30;;;27.70;91.70;;;;;;5061055;28;20208;-76
2023/06/28 10:30:10;;;;;;;5.10;4.60;;;27.10;91.70;;;;;;5067491;28;20269;-76
2023/06/28 10:32:38;;;;;;;5.23;3.63;;;26.80;91.60;;;;;;5062654;28;20313;-76
2023/06/28 10:35:08;;;;;;;8.97;3.97;;;26.80;92.60;;;;;;5066232;28;20214;-76
2023/06/28 10:37:35;;;;;;;5.03;2.70;;;26.50;93.20;;;;;;5056211;28;20203;-76
2023/06/28 10:40:04;;;;;;;3.83;2.40;;;26.70;92.70;;;;;;5063492;28;20788;-76
2023/06/28 10:42:39;;;;;;;4.40;3.90;;;26.60;93.40;;;;;;5059683;28;20218;-76
2023/06/28 10:45:08;;;;;;;4.27;2.33;;;26.50;92.50;;;;;;5057636;28;20273;-76
2023/06/28 10:47:37;;;;;;;4.97;2.37;;;26.30;92.80;;;;;;5053842;28;20204;-76
2023/06/28 10:50:09;;;;;;;4.20;3.90;;;26.20;93.20;;;;;;5064964;28;20192;-76
2023/06/28 10:52:36;;;;;;;2.90;2.10;;;26.40;93.30;;;;;;5057301;28;20647;-76
2023/06/28 10:55:04;;;;;;;2.67;2.20;;;26.50;92.50;;;;;;5058286;28;20657;-74
2023/06/28 10:57:38;;;;;;;5.37;2.47;;;26.90;92.40;;;;;;5051204;28;20205;-73
2023/06/28 11:00:09;;;;;;;4.00;2.20;;;26.60;92.00;;;;;;5065818;28;20215;-74
2023/06/28 11:03:02;;;;;;;4.30;2.33;;;26.40;92.40;;;;;;5066436;28;20268;-75
2023/06/28 11:05:39;;;;;;;4.27;3.07;;;26.30;92.10;;;;;;5061121;28;20202;-74
2023/06/28 11:08:10;;;;;;;5.30;3.27;;;26.30;92.10;;;;;;5057108;28;20239;-74
2023/06/28 11:10:38;;;;;;;7.60;3.30;;;26.10;92.20;;;;;;5045010;28;20246;-77
2023/06/28 11:13:08;;;;;;;9.33;4.87;;;25.90;92.20;;;;;;5055203;28;20215;-77
2023/06/28 11:15:35;;;;;;;5.27;4.20;;;25.50;92.00;;;;;;5070321;28;20207;-77
2023/06/28 11:18:16;;;;;;;2.23;1.90;;;25.80;93.50;;;;;;5058446;28;20203;-77
2023/06/28 11:20:51;;;;;;;3.97;2.03;;;26.30;92.70;;;;;;5071691;28;20230;-76
2023/06/28 11:23:25;;;;;;;4.17;2.40;;;26.70;92.50;;;;;;5053542;28;20218;-77
2023/06/28 11:26:00;;;;;;;5.07;4.57;;;27.30;92.10;;;;;;5057802;28;20223;-77
2023/06/28 11:28:30;;;;;;;4.90;4.50;;;27.70;91.70;;;;;;5066906;28;20186;-78
2023/06/28 11:31:11;;;;;;;6.43;4.93;;;28.20;90.50;;;;;;5067263;28;20194;-77
2023/06/28 11:33:40;;;;;;;4.93;2.60;;;27.80;88.80;;;;;;5061066;28;20247;-77
2023/06/28 11:36:08;;;;;;;3.73;2.90;;;27.30;90.20;;;;;;5061569;28;20186;-78
2023/06/28 11:38:36;;;;;;;2.93;2.20;;;27.10;91.30;;;;;;5054999;28;20234;-77
2023/06/28 11:41:04;;;;;;;4.70;2.43;;;26.70;91.60;;;;;;5062849;28;20299;-77
2023/06/28 11:43:30;;;;;;;3.33;2.10;;;27.00;92.20;;;;;;5054701;28;20211;-78
2023/06/28 11:45:57;;;;;;;4.17;3.77;;;26.90;92.20;;;;;;5075227;28;20252;-79
2023/06/28 11:48:25;;;;;;;4.13;3.73;;;27.00;92.40;;;;;;5058758;28;20213;-77
2023/06/28 11:51:00;;;;;;;2.93;2.13;;;26.70;92.00;;;;;;5060886;28;20194;-78
2023/06/28 11:53:27;;;;;;;4.30;2.33;;;26.90;92.90;;;;;;5069474;28;20267;-77
2023/06/28 11:55:56;;;;;;;4.20;3.00;;;26.80;91.90;;;;;;5067273;28;20301;-79
2023/06/28 11:58:30;;;;;;;3.60;2.87;;;26.10;91.20;;;;;;5069140;28;20198;-79
2023/06/28 12:00:57;;;;;;;5.20;4.13;;;25.80;91.90;;;;;;5069603;28;20773;-78
2023/06/28 12:03:31;;;;;;;4.57;2.77;;;25.70;93.10;;;;;;5062586;28;20293;-78
2023/06/28 12:06:01;;;;;;;4.60;3.50;;;25.50;92.70;;;;;;5059178;28;20259;-76
2023/06/28 12:08:31;;;;;;;4.37;3.70;;;25.50;93.60;;;;;;5061145;28;20630;-78
2023/06/28 12:10:58;;;;;;;5.97;5.47;;;25.40;92.80;;;;;;5063703;28;20693;-82
2023/06/28 12:13:25;;;;;;;3.90;3.50;;;25.10;93.10;;;;;;5067139;28;20242;-79
2023/06/28 12:15:54;;;;;;;5.37;4.87;;;25.30;93.40;;;;;;5057976;28;20205;-76
2023/06/28 12:18:21;;;;;;;4.43;3.20;;;25.20;92.10;;;;;;5059596;28;20681;-77
2023/06/28 12:20:48;;;;;;;3.77;2.30;;;25.10;93.10;;;;;;5040469;28;20246;-78
2023/06/28 12:23:16;;;;;;;5.20;2.57;;;25.50;92.50;;;;;;5041927;28;20265;-78
2023/06/28 12:25:43;;;;;;;5.23;2.43;;;25.60;92.70;;;;;;5064487;28;20202;-79
2023/06/28 12:28:14;;;;;;;2.40;2.20;;;25.80;92.30;;;;;;5065663;28;20202;-78
2023/06/28 12:30:41;;;;;;;5.30;4.80;;;26.00;92.70;;;;;;5063225;28;20191;-78
2023/06/28 12:33:09;;;;;;;4.90;4.50;;;26.40;92.80;;;;;;5059501;28;20218;-78
2023/06/28 12:35:35;;;;;;;2.53;2.20;;;26.90;92.50;;;;;;5056477;28;20707;-78
2023/06/28 12:38:04;;;;;;;5.73;4.37;;;27.20;92.00;;;;;;5065536;28;20737;-79
2023/06/28 12:40:33;;;;;;;5.23;3.90;;;27.40;91.50;;;;;;5062151;28;20663;-79
2023/06/28 12:43:14;;;;;;;3.53;2.40;;;27.40;90.60;;;;;;5062112;28;20238;-80
2023/06/28 12:45:47;;;;;;;4.87;2.40;;;27.40;90.00;;;;;;5071018;28;20213;-77
2023/06/28 12:48:16;;;;;;;3.20;2.37;;;26.90;90.20;;;;;;5065354;28;20213;-78
2023/06/28 12:50:43;;;;;;;5.23;2.80;;;26.90;90.60;;;;;;5067157;28;20835;-80
2023/06/28 12:53:10;;;;;;;5.70;4.87;;;26.50;91.30;;;;;;5063655;28;20230;-78